createdAt,value
2018-12-27T00:02:26.074Z,29.87
2018-12-27T00:04:55.295Z,29.53
2018-12-27T00:07:24.452Z,29.23
2018-12-27T00:09:53.931Z,30.90
2018-12-27T00:12:23.075Z,29.47
2018-12-27T00:14:56.315Z,28.80
2018-12-27T00:17:25.455Z,28.43
2018-12-27T00:19:54.653Z,28.93
2018-12-27T00:22:23.828Z,28.90
2018-12-27T00:24:53.000Z,29.03
2018-12-27T00:27:22.160Z,29.50
2018-12-27T00:29:51.416Z,29.97
2018-12-27T00:32:20.733Z,29.00
2018-12-27T00:34:49.974Z,27.80
2018-12-27T00:37:19.292Z,28.53
2018-12-27T00:39:48.548Z,30.03
2018-12-27T00:42:17.922Z,29.43
2018-12-27T00:44:47.604Z,27.77
2018-12-27T00:47:16.998Z,28.50
2018-12-27T00:49:46.245Z,28.90
2018-12-27T00:52:15.653Z,29.40
2018-12-27T00:54:45.194Z,28.40
2018-12-27T00:57:14.447Z,28.07
2018-12-27T00:59:44.266Z,29.33
2018-12-27T01:02:13.626Z,28.93
2018-12-27T01:04:43.230Z,30.73
2018-12-27T01:07:12.838Z,31.57
2018-12-27T01:09:42.511Z,30.07
2018-12-27T01:12:11.786Z,30.37
2018-12-27T01:14:40.988Z,29.57
2018-12-27T01:17:10.330Z,28.13
2018-12-27T01:19:39.648Z,28.83
2018-12-27T01:22:08.974Z,28.77
2018-12-27T01:24:38.319Z,28.00
2018-12-27T01:27:07.931Z,28.60
2018-12-27T01:29:37.160Z,29.37
2018-12-27T01:32:06.844Z,29.67
2018-12-27T01:34:36.407Z,29.73
2018-12-27T01:37:05.954Z,30.07
2018-12-27T01:39:35.258Z,29.57
2018-12-27T01:42:04.576Z,31.07
2018-12-27T01:44:33.789Z,29.93
2018-12-27T01:47:03.034Z,28.53
2018-12-27T01:49:32.269Z,30.53
2018-12-27T01:52:01.613Z,30.80
2018-12-27T01:54:30.840Z,30.50
2018-12-27T01:57:00.019Z,29.50
2018-12-27T01:59:29.241Z,28.87
2018-12-27T02:01:58.469Z,29.27
2018-12-27T02:04:27.709Z,30.97
2018-12-27T02:06:57.385Z,29.30
2018-12-27T02:09:26.810Z,30.43
2018-12-27T02:11:56.130Z,30.03
2018-12-27T02:14:25.776Z,28.57
2018-12-27T02:16:55.068Z,29.17
2018-12-27T02:19:24.454Z,30.50
2018-12-27T02:21:53.806Z,29.17
2018-12-27T02:24:23.110Z,28.90
2018-12-27T02:26:52.376Z,29.97
2018-12-27T02:29:21.715Z,29.73
2018-12-27T02:31:51.190Z,30.00
2018-12-27T02:34:20.648Z,29.97
2018-12-27T02:36:49.988Z,29.27
2018-12-27T02:39:19.327Z,29.60
2018-12-27T02:41:48.570Z,29.43
2018-12-27T02:44:17.985Z,29.40
2018-12-27T02:46:47.587Z,28.80
2018-12-27T02:49:16.951Z,29.37
2018-12-27T02:51:46.542Z,29.53
2018-12-27T02:54:15.870Z,29.17
2018-12-27T02:56:45.495Z,29.40
2018-12-27T02:59:15.703Z,29.97
2018-12-27T03:01:45.045Z,29.30
2018-12-27T03:04:14.658Z,30.63
2018-12-27T03:06:44.324Z,30.33
2018-12-27T03:09:13.650Z,30.10
2018-12-27T03:11:43.309Z,30.17
2018-12-27T03:14:12.548Z,30.50
2018-12-27T03:16:41.794Z,29.57
2018-12-27T03:19:11.107Z,29.57
2018-12-27T03:21:40.524Z,29.13
2018-12-27T03:24:09.780Z,28.37
2018-12-27T03:26:39.679Z,28.53
2018-12-27T03:29:09.355Z,29.20
2018-12-27T03:31:38.652Z,28.90
2018-12-27T03:34:08.312Z,30.03
2018-12-27T03:36:37.632Z,29.37
2018-12-27T03:39:07.597Z,29.40
2018-12-27T03:41:37.245Z,29.73
2018-12-27T03:44:06.925Z,28.43
2018-12-27T03:46:36.294Z,28.50
2018-12-27T03:49:05.695Z,28.77
2018-12-27T03:51:35.541Z,30.37
2018-12-27T03:54:04.953Z,29.17
2018-12-27T03:56:34.340Z,29.00
2018-12-27T03:59:03.696Z,30.80
2018-12-27T04:01:32.935Z,30.17
2018-12-27T04:04:02.556Z,29.30
2018-12-27T04:06:31.861Z,29.33
2018-12-27T04:09:01.220Z,28.13
2018-12-27T04:11:30.788Z,28.77
2018-12-27T04:14:00.507Z,30.40
2018-12-27T04:16:29.744Z,28.53
2018-12-27T04:18:58.984Z,29.00
2018-12-27T04:21:28.476Z,29.03
2018-12-27T04:23:58.403Z,30.03
2018-12-27T04:26:28.445Z,28.53
2018-12-27T04:28:58.009Z,29.00
2018-12-27T04:31:27.381Z,29.80
2018-12-27T04:33:57.596Z,29.07
2018-12-27T04:36:27.748Z,29.73
2018-12-27T04:38:56.993Z,29.43
2018-12-27T04:41:27.236Z,28.17
2018-12-27T04:43:58.359Z,29.00
2018-12-27T04:46:27.596Z,29.77
2018-12-27T04:48:56.762Z,29.50
2018-12-27T04:51:25.939Z,27.87
2018-12-27T04:53:55.077Z,28.47
2018-12-27T04:56:24.604Z,28.30
2018-12-27T04:58:54.125Z,26.70
2018-12-27T05:01:23.282Z,27.10
2018-12-27T05:03:52.565Z,27.20
2018-12-27T05:06:21.784Z,27.53
2018-12-27T05:08:51.056Z,25.70
2018-12-27T05:11:20.300Z,26.97
2018-12-27T05:13:49.481Z,26.47
2018-12-27T05:16:19.164Z,27.43
2018-12-27T05:18:48.374Z,26.27
2018-12-27T05:21:17.691Z,25.67
2018-12-27T05:23:47.112Z,25.87
2018-12-27T05:26:16.575Z,25.40
2018-12-27T05:28:45.817Z,26.60
2018-12-27T05:31:14.989Z,24.37
2018-12-27T05:33:44.230Z,23.63
2018-12-27T05:36:13.479Z,25.27
2018-12-27T05:38:42.655Z,25.10
2018-12-27T05:41:12.189Z,24.90
2018-12-27T05:43:41.799Z,24.83
2018-12-27T05:46:11.009Z,25.30
2018-12-27T05:48:40.256Z,25.10
2018-12-27T05:51:09.423Z,24.83
2018-12-27T05:53:38.747Z,25.70
2018-12-27T05:56:08.311Z,24.97
2018-12-27T05:58:37.801Z,24.27
2018-12-27T06:01:06.955Z,24.43
2018-12-27T06:03:36.100Z,24.27
2018-12-27T06:06:05.604Z,23.67
2018-12-27T06:08:35.106Z,22.97
2018-12-27T06:11:04.252Z,23.47
2018-12-27T06:13:33.430Z,22.53
2018-12-27T06:16:02.586Z,23.23
2018-12-27T06:18:31.769Z,22.23
2018-12-27T06:21:00.924Z,22.53
2018-12-27T06:23:30.389Z,23.50
2018-12-27T06:25:59.521Z,22.63
2018-12-27T06:28:29.302Z,22.63
2018-12-27T06:30:58.468Z,22.57
2018-12-27T06:33:27.720Z,22.20
2018-12-27T06:36:15.949Z,23.07
2018-12-27T06:38:45.128Z,23.50
2018-12-27T06:41:14.392Z,23.00
2018-12-27T06:43:43.605Z,23.47
2018-12-27T06:46:13.216Z,23.50
2018-12-27T06:48:42.358Z,24.03
2018-12-27T06:51:11.514Z,23.97
2018-12-27T06:53:41.138Z,23.93
2018-12-27T06:56:11.039Z,23.83
2018-12-27T06:58:40.220Z,23.93
2018-12-27T07:01:09.377Z,23.93
2018-12-27T07:03:38.927Z,23.33
2018-12-27T07:06:08.101Z,23.57
2018-12-27T07:08:37.283Z,25.00
2018-12-27T07:11:06.708Z,23.73
2018-12-27T07:13:35.943Z,22.67
2018-12-27T07:16:05.355Z,23.30
2018-12-27T07:18:38.324Z,23.33
2018-12-27T07:21:07.650Z,24.13
2018-12-27T07:23:36.919Z,23.27
2018-12-27T07:26:06.152Z,23.37
2018-12-27T07:28:35.814Z,24.03
2018-12-27T07:31:05.077Z,23.63
2018-12-27T07:33:34.337Z,23.13
2018-12-27T07:36:03.588Z,22.97
2018-12-27T07:38:32.797Z,24.53
2018-12-27T07:41:02.053Z,22.87
2018-12-27T07:43:31.297Z,24.30
2018-12-27T07:46:00.551Z,25.30
2018-12-27T07:48:29.714Z,25.30
2018-12-27T07:50:58.952Z,26.67
2018-12-27T07:53:28.164Z,24.70
2018-12-27T07:55:57.401Z,23.73
2018-12-27T07:58:26.832Z,23.83
2018-12-27T08:00:56.639Z,24.23
2018-12-27T08:03:26.137Z,23.53
2018-12-27T08:05:55.389Z,23.40
2018-12-27T08:08:24.651Z,24.10
2018-12-27T08:10:54.283Z,23.03
2018-12-27T08:13:23.527Z,22.93
2018-12-27T08:15:53.065Z,23.27
2018-12-27T08:18:22.243Z,21.97
2018-12-27T08:20:51.498Z,22.23
2018-12-27T08:23:20.811Z,21.70
2018-12-27T08:25:50.113Z,23.73
2018-12-27T08:28:19.958Z,22.63
2018-12-27T08:30:49.200Z,23.07
2018-12-27T08:33:18.447Z,24.20
2018-12-27T08:35:47.907Z,23.67
2018-12-27T08:38:17.151Z,25.10
2018-12-27T08:40:46.563Z,24.33
2018-12-27T08:43:16.198Z,25.20
2018-12-27T08:45:45.403Z,24.30
2018-12-27T08:48:14.641Z,24.37
2018-12-27T08:50:43.886Z,23.97
2018-12-27T08:53:13.090Z,23.70
2018-12-27T08:55:42.467Z,24.10
2018-12-27T08:58:12.016Z,23.20
2018-12-27T09:00:41.221Z,23.63
2018-12-27T09:03:10.794Z,24.00
2018-12-27T09:05:40.033Z,24.27
2018-12-27T09:08:09.267Z,23.63
2018-12-27T09:10:38.832Z,22.43
2018-12-27T09:13:08.081Z,22.20
2018-12-27T09:15:37.389Z,23.23
2018-12-27T09:18:06.763Z,25.07
2018-12-27T09:20:36.087Z,24.43
2018-12-27T09:23:05.254Z,24.80
2018-12-27T09:25:34.460Z,28.67
2018-12-27T09:28:03.622Z,24.33
2018-12-27T09:30:32.878Z,23.33
2018-12-27T09:33:02.157Z,23.87
2018-12-27T09:35:31.439Z,22.33
2018-12-27T09:38:00.688Z,22.50
2018-12-27T09:40:29.883Z,23.77
2018-12-27T09:42:59.163Z,24.63
2018-12-27T09:45:28.428Z,25.70
2018-12-27T09:47:58.005Z,24.20
2018-12-27T09:50:27.494Z,23.10
2018-12-27T09:52:56.736Z,22.83
2018-12-27T09:55:25.988Z,23.33
2018-12-27T09:57:55.500Z,23.77
2018-12-27T10:00:25.012Z,23.43
2018-12-27T10:02:54.910Z,23.80
2018-12-27T10:05:24.234Z,22.57
2018-12-27T10:07:57.449Z,22.77
2018-12-27T10:10:24.822Z,22.03
2018-12-27T10:12:53.993Z,20.63
2018-12-27T10:15:23.214Z,22.83
2018-12-27T10:17:52.781Z,22.20
2018-12-27T10:20:22.031Z,22.70
2018-12-27T10:22:51.276Z,21.70
2018-12-27T10:25:20.596Z,21.17
2018-12-27T10:27:49.795Z,22.90
2018-12-27T10:30:19.147Z,22.77
2018-12-27T10:32:48.778Z,22.20
2018-12-27T10:35:18.055Z,21.47
2018-12-27T10:37:47.388Z,21.73
2018-12-27T10:40:16.660Z,22.47
2018-12-27T10:42:45.892Z,22.27
2018-12-27T10:45:15.135Z,21.73
2018-12-27T10:47:44.344Z,22.53
2018-12-27T10:50:13.539Z,22.40
2018-12-27T10:52:42.745Z,22.10
2018-12-27T10:55:12.344Z,21.97
2018-12-27T10:57:41.530Z,22.20
2018-12-27T11:00:12.098Z,21.37
2018-12-27T11:02:41.278Z,20.73
2018-12-27T11:05:10.556Z,20.37
2018-12-27T11:07:39.753Z,21.17
2018-12-27T11:10:11.377Z,21.43
2018-12-27T11:12:40.797Z,20.77
2018-12-27T11:15:10.047Z,20.77
2018-12-27T11:17:39.679Z,20.33
2018-12-27T11:20:08.963Z,20.27
2018-12-27T11:22:38.114Z,20.67
2018-12-27T11:25:07.371Z,21.57
2018-12-27T11:27:36.616Z,20.43
2018-12-27T11:30:07.107Z,21.70
2018-12-27T11:32:36.634Z,21.00
2018-12-27T11:35:06.022Z,21.40
2018-12-27T11:37:35.212Z,22.67
2018-12-27T11:40:04.770Z,21.97
2018-12-27T11:42:34.373Z,21.23
2018-12-27T11:45:03.610Z,21.30
2018-12-27T11:47:32.852Z,21.00
2018-12-27T11:50:02.018Z,22.03
2018-12-27T11:52:31.257Z,20.70
2018-12-27T11:55:00.455Z,20.83
2018-12-27T11:57:29.692Z,20.43
2018-12-27T11:59:59.309Z,20.87
2018-12-27T12:02:31.293Z,21.23
2018-12-27T12:05:00.148Z,21.53
2018-12-27T12:07:30.086Z,21.73
2018-12-27T12:09:59.687Z,20.80
2018-12-27T12:12:28.880Z,21.77
2018-12-27T12:14:58.047Z,21.20
2018-12-27T12:17:27.325Z,20.87
2018-12-27T12:19:56.777Z,20.63
2018-12-27T12:22:26.350Z,22.13
2018-12-27T12:24:55.617Z,21.13
2018-12-27T12:27:24.890Z,21.27
2018-12-27T12:29:54.141Z,21.00
2018-12-27T12:32:23.309Z,21.07
2018-12-27T12:34:52.518Z,22.43
2018-12-27T12:37:22.188Z,21.97
2018-12-27T12:39:51.826Z,22.10
2018-12-27T12:42:33.025Z,22.53
2018-12-27T12:44:52.538Z,21.73
2018-12-27T12:47:22.055Z,22.20
2018-12-27T12:49:51.560Z,23.03
2018-12-27T12:52:20.807Z,21.80
2018-12-27T12:54:49.954Z,22.50
2018-12-27T12:57:19.539Z,21.53
2018-12-27T12:59:48.870Z,23.80
2018-12-27T13:02:18.190Z,23.03
2018-12-27T13:04:47.416Z,22.27
2018-12-27T13:07:16.761Z,22.10
2018-12-27T13:09:46.003Z,23.10
2018-12-27T13:12:15.349Z,22.37
2018-12-27T13:14:44.529Z,22.80
2018-12-27T13:17:14.475Z,21.63
2018-12-27T13:19:43.659Z,23.43
2018-12-27T13:22:12.833Z,23.30
2018-12-27T13:24:42.037Z,22.77
2018-12-27T13:27:11.227Z,24.33
2018-12-27T13:29:40.482Z,23.53
2018-12-27T13:32:10.604Z,23.63
2018-12-27T13:34:39.769Z,24.87
2018-12-27T13:37:08.896Z,23.30
2018-12-27T13:39:38.541Z,23.73
2018-12-27T13:42:07.762Z,24.17
2018-12-27T13:44:37.081Z,24.10
2018-12-27T13:47:06.472Z,23.87
2018-12-27T13:49:35.667Z,25.30
2018-12-27T13:52:04.922Z,25.27
2018-12-27T13:54:34.254Z,24.23
2018-12-27T13:57:03.851Z,23.77
2018-12-27T13:59:33.256Z,25.00
2018-12-27T14:02:02.814Z,23.87
2018-12-27T14:04:32.375Z,24.93
2018-12-27T14:07:01.628Z,23.40
2018-12-27T14:09:30.833Z,25.20
2018-12-27T14:12:00.104Z,26.13
2018-12-27T14:14:29.336Z,26.20
2018-12-27T14:16:58.491Z,26.77
2018-12-27T14:19:28.374Z,26.10
2018-12-27T14:21:57.943Z,29.27
2018-12-27T14:24:27.134Z,26.60
2018-12-27T14:26:56.354Z,26.13
2018-12-27T14:29:25.580Z,26.07
2018-12-27T14:31:55.279Z,27.17
2018-12-27T14:34:24.514Z,26.47
2018-12-27T14:36:54.087Z,26.07
2018-12-27T14:39:23.487Z,25.80
2018-12-27T14:41:53.118Z,25.37
2018-12-27T14:44:22.668Z,24.63
2018-12-27T14:46:51.882Z,25.40
2018-12-27T14:49:21.108Z,23.97
2018-12-27T14:51:50.418Z,25.23
2018-12-27T14:54:19.766Z,25.17
2018-12-27T14:56:49.390Z,24.83
2018-12-27T14:59:18.844Z,23.33
2018-12-27T15:01:48.190Z,22.87
2018-12-27T15:04:17.387Z,24.23
2018-12-27T15:06:48.779Z,25.10
2018-12-27T15:09:17.855Z,25.53
2018-12-27T15:11:47.116Z,23.83
2018-12-27T15:14:16.285Z,24.20
2018-12-27T15:16:45.753Z,23.53
2018-12-27T15:19:15.022Z,23.37
2018-12-27T15:21:44.281Z,24.13
2018-12-27T15:24:13.918Z,25.17
2018-12-27T15:26:43.227Z,25.53
2018-12-27T15:29:12.830Z,25.07
2018-12-27T15:31:42.066Z,26.73
2018-12-27T15:34:11.385Z,27.27
2018-12-27T15:36:40.654Z,25.47
2018-12-27T15:39:09.911Z,25.03
2018-12-27T15:41:39.519Z,26.20
2018-12-27T15:44:08.935Z,25.13
2018-12-27T15:46:38.223Z,26.97
2018-12-27T15:49:08.146Z,27.87
2018-12-27T15:51:37.321Z,28.80
2018-12-27T15:54:06.604Z,28.10
2018-12-27T15:56:36.224Z,27.63
2018-12-27T15:59:05.483Z,27.43
2018-12-27T16:01:35.356Z,28.63
2018-12-27T16:04:04.949Z,28.60
2018-12-27T16:06:34.682Z,27.00
2018-12-27T16:09:04.833Z,26.90
2018-12-27T16:11:34.185Z,26.30
2018-12-27T16:14:03.452Z,26.70
2018-12-27T16:16:33.104Z,26.13
2018-12-27T16:19:02.342Z,26.73
2018-12-27T16:21:31.676Z,26.53
2018-12-27T16:24:00.921Z,26.67
2018-12-27T16:26:30.153Z,29.77
2018-12-27T16:28:59.333Z,29.33
2018-12-27T16:31:28.782Z,30.07
2018-12-27T16:33:58.425Z,28.17
2018-12-27T16:36:27.679Z,27.30
2018-12-27T16:38:57.032Z,27.83
2018-12-27T16:41:26.305Z,27.70
2018-12-27T16:43:55.665Z,29.50
2018-12-27T16:46:24.913Z,32.13
2018-12-27T16:48:54.181Z,32.57
2018-12-27T16:51:23.361Z,29.17
2018-12-27T16:53:52.686Z,28.87
2018-12-27T16:56:22.200Z,29.10
2018-12-27T16:58:51.501Z,31.97
2018-12-27T17:01:20.726Z,31.83
2018-12-27T17:03:50.104Z,30.67
2018-12-27T17:06:19.466Z,29.37
2018-12-27T17:08:49.384Z,31.50
2018-12-27T17:11:19.004Z,32.23
2018-12-27T17:13:48.327Z,30.80
2018-12-27T17:16:17.545Z,31.27
2018-12-27T17:18:46.788Z,33.03
2018-12-27T17:21:16.356Z,32.07
2018-12-27T17:23:45.729Z,31.97
2018-12-27T17:26:15.011Z,33.07
2018-12-27T17:28:44.241Z,32.53
2018-12-27T17:31:13.496Z,33.47
2018-12-27T17:33:42.746Z,33.50
2018-12-27T17:36:12.294Z,33.67
2018-12-27T17:38:41.930Z,36.40
2018-12-27T17:41:11.217Z,34.10
2018-12-27T17:43:41.025Z,34.17
2018-12-27T17:46:10.309Z,32.53
2018-12-27T17:48:39.603Z,37.70
2018-12-27T17:51:08.809Z,45.87
2018-12-27T17:53:37.994Z,38.27
2018-12-27T17:56:07.483Z,36.67
2018-12-27T17:58:37.052Z,38.47
2018-12-27T18:01:06.342Z,37.77
2018-12-27T18:03:35.721Z,36.87
2018-12-27T18:06:05.454Z,34.43
2018-12-27T18:08:35.098Z,33.53
2018-12-27T18:11:05.159Z,34.00
2018-12-27T18:13:34.566Z,34.03
2018-12-27T18:16:03.924Z,33.73
2018-12-27T18:18:33.180Z,34.43
2018-12-27T18:21:02.538Z,37.30
2018-12-27T18:23:32.332Z,36.47
2018-12-27T18:26:01.534Z,36.50
2018-12-27T18:28:30.828Z,35.80
2018-12-27T18:31:00.106Z,34.23
2018-12-27T18:33:29.371Z,36.87
2018-12-27T18:35:58.544Z,34.87
2018-12-27T18:38:28.163Z,35.63
2018-12-27T18:40:57.768Z,36.20
2018-12-27T18:43:26.951Z,34.53
2018-12-27T18:45:56.758Z,36.47
2018-12-27T18:48:26.379Z,33.87
2018-12-27T18:50:55.537Z,41.93
2018-12-27T18:53:24.923Z,37.83
2018-12-27T18:55:54.463Z,38.07
2018-12-27T18:58:23.631Z,36.57
2018-12-27T19:00:53.174Z,35.20
2018-12-27T19:03:30.698Z,37.40
2018-12-27T19:05:59.931Z,35.73
2018-12-27T19:08:29.182Z,35.23
2018-12-27T19:11:34.179Z,33.87
2018-12-27T19:14:03.769Z,36.27
2018-12-27T19:16:33.083Z,33.73
2018-12-27T19:19:02.610Z,37.17
2018-12-27T19:22:03.746Z,35.10
2018-12-27T19:24:33.320Z,37.20
2018-12-27T19:27:02.825Z,35.40
2018-12-27T19:29:32.061Z,39.20
2018-12-27T19:32:01.256Z,42.10
2018-12-27T19:34:30.439Z,45.60
2018-12-27T19:36:59.579Z,40.03
2018-12-27T19:39:28.784Z,38.47
2018-12-27T19:41:58.352Z,36.90
2018-12-27T19:44:27.539Z,35.70
2018-12-27T19:46:56.776Z,35.77
2018-12-27T19:49:26.257Z,35.53
2018-12-27T19:51:55.453Z,36.53
2018-12-27T19:54:31.752Z,37.33
2018-12-27T19:56:55.689Z,37.67
2018-12-27T19:59:24.880Z,37.67
2018-12-27T20:01:54.217Z,38.97
2018-12-27T20:04:23.384Z,39.03
2018-12-27T20:06:52.620Z,38.67
2018-12-27T20:09:22.077Z,38.30
2018-12-27T20:11:51.364Z,39.33
2018-12-27T20:14:20.611Z,37.10
2018-12-27T20:16:50.044Z,37.53
2018-12-27T20:19:19.575Z,38.27
2018-12-27T20:21:49.081Z,37.93
2018-12-27T20:24:18.574Z,39.57
2018-12-27T20:26:48.080Z,41.93
2018-12-27T20:29:17.357Z,38.67
2018-12-27T20:31:46.628Z,37.70
2018-12-27T20:34:15.841Z,38.43
2018-12-27T20:36:45.057Z,37.60
2018-12-27T20:39:14.245Z,37.77
2018-12-27T20:41:43.490Z,38.37
2018-12-27T20:44:12.679Z,38.07
2018-12-27T20:46:41.940Z,38.10
2018-12-27T20:49:11.448Z,37.20
2018-12-27T20:51:41.044Z,38.70
2018-12-27T20:54:10.540Z,37.63
2018-12-27T20:56:39.719Z,39.33
2018-12-27T20:59:09.862Z,38.17
2018-12-27T21:01:39.158Z,37.97
2018-12-27T21:04:08.769Z,36.10
2018-12-27T21:06:37.925Z,42.30
2018-12-27T21:09:08.319Z,39.77
2018-12-27T21:11:37.794Z,38.70
2018-12-27T21:14:07.842Z,39.47
2018-12-27T21:16:37.425Z,39.67
2018-12-27T21:19:25.658Z,39.80
2018-12-27T21:21:54.941Z,41.13
2018-12-27T21:24:24.292Z,40.27
2018-12-27T21:26:53.701Z,39.20
2018-12-27T21:29:22.873Z,39.50
2018-12-27T21:31:52.148Z,39.60
2018-12-27T21:34:21.990Z,39.27
2018-12-27T21:36:51.220Z,40.73
2018-12-27T21:39:20.415Z,40.60
2018-12-27T21:41:49.662Z,40.33
2018-12-27T21:44:19.186Z,38.60
2018-12-27T21:46:48.428Z,38.30
2018-12-27T21:49:17.606Z,38.30
2018-12-27T21:51:46.776Z,39.37
2018-12-27T21:54:16.087Z,39.83
2018-12-27T21:56:45.348Z,40.10
2018-12-27T21:59:14.534Z,40.40
2018-12-27T22:01:43.699Z,39.33
2018-12-27T22:04:13.222Z,37.73
2018-12-27T22:06:43.182Z,38.87
2018-12-27T22:09:13.021Z,37.47
2018-12-27T22:11:42.208Z,38.53
2018-12-27T22:14:11.373Z,39.27
2018-12-27T22:16:40.544Z,38.63
2018-12-27T22:19:10.086Z,38.23
2018-12-27T22:21:39.396Z,40.77
2018-12-27T22:24:08.669Z,40.37
2018-12-27T22:26:38.474Z,40.60
2018-12-27T22:29:07.612Z,39.53
2018-12-27T22:31:36.795Z,39.13
2018-12-27T22:34:06.174Z,41.30
2018-12-27T22:36:35.328Z,39.57
2018-12-27T22:39:06.982Z,40.80
2018-12-27T22:41:36.108Z,40.77
2018-12-27T22:44:05.280Z,39.43
2018-12-27T22:46:34.514Z,39.77
2018-12-27T22:49:03.838Z,39.37
2018-12-27T22:51:33.009Z,39.47
2018-12-27T22:54:02.202Z,38.47
2018-12-27T22:56:31.362Z,38.70
2018-12-27T22:59:00.913Z,40.03
2018-12-27T23:01:30.096Z,39.73
2018-12-27T23:03:59.273Z,40.10
2018-12-27T23:06:28.405Z,37.30
2018-12-27T23:08:57.917Z,38.00
2018-12-27T23:11:27.069Z,38.37
2018-12-27T23:13:56.242Z,38.77
2018-12-27T23:16:25.402Z,38.13
2018-12-27T23:18:54.674Z,37.70
2018-12-27T23:21:23.845Z,38.93
2018-12-27T23:23:53.097Z,38.13
2018-12-27T23:26:22.261Z,37.40
2018-12-27T23:28:51.453Z,37.90
2018-12-27T23:31:20.674Z,36.07
2018-12-27T23:33:49.838Z,37.47
2018-12-27T23:36:19.077Z,38.73
2018-12-27T23:38:50.505Z,36.43
2018-12-27T23:41:19.808Z,36.63
2018-12-27T23:43:49.428Z,35.87
2018-12-27T23:46:19.031Z,36.60
2018-12-27T23:48:48.200Z,36.97
2018-12-27T23:51:17.344Z,37.20
2018-12-27T23:53:46.805Z,36.10
2018-12-27T23:56:15.995Z,37.63
2018-12-27T23:58:45.158Z,36.27
